Overview Statistics Trail Chart Weather Telemetry Raw packets
 

This is the latest recevied weather packets stored in our database for station/object SM4JDW-10. If no packets are shown the sender has not sent any weather packets the latest 10 day(s).

<< 1 2 3 4 >>
Time Temp. Humidity Pressure Rain* Wind** Luminosity Snow
1788637092 12.78° C 62% 1003.4 hPa - - - -
1788635292 13.33° C 63% 1003.2 hPa - - - -
1788633492 13.89° C 62% 1002.9 hPa - - - -
1788631692 14.44° C 60% 1002.3 hPa - - - -
1788629892 15.56° C 60% 1001.9 hPa - - - -
1788628092 16.67° C 57% 1001.5 hPa - - - -
1788626292 17.22° C 54% 1001.1 hPa - - - -
1788624492 17.22° C 54% 1000.7 hPa - - - -
1788622691 17.22° C 51% 1000 hPa - - - -
1788620891 17.78° C 52% 999.9 hPa - - - -
1788619091 17.78° C 51% 999.5 hPa - - - -
1788617298 17.78° C 50% 999.1 hPa - - - -
1788615491 18.33° C 49% 998.8 hPa - - - -
1788613691 18.89° C 48% 998.5 hPa - - - -
1788611891 18.89° C 49% 998.3 hPa - - - -
1788610091 17.78° C 55% 998.1 hPa - - - -
1788608291 16.67° C 57% 998 hPa - - - -
1788606491 15.56° C 60% 997.9 hPa - - - -
1788604691 15° C 63% 997.7 hPa - - - -
1788602890 14.44° C 63% 997.5 hPa - - - -
1788601090 13.89° C 67% 997.3 hPa - - - -
1788599292 13.33° C 68% 997.1 hPa - - - -
1788597492 12.22° C 69% 997 hPa - - - -
1788595691 12.22° C 70% 996.8 hPa - - - -
1788593891 11.67° C 70% 996.7 hPa - - - -

* Rain since midnight (hover to see other rain measurements)
** Current wind speed in m/s (hover to see current wind gust speed)